Andre.l — FMFE — position and weather

sailwx.info

Track history (hours):
 
Tides and Currents Weather Stations Pressure Air Temp Water Temp Dewpoint Dewpoint Depression Visibility Wind Speed Wind Dir Waves Ship Positions

Andre.l

Last reported at 2018-Jun-18 06:00 UTC. Time now 2018-Jun-18 06:02 UTC.
Position N 45°36' W 001°06'.

Length 84 m; draft 5.1 m.

Type: Cargo ship. MMSI: 228219600.

Date/timePositionNaut miles runAvg speedWind from/ knotsBaromVisibWave heightAir tempDewpointWater temp
2018-Jun-18 06:00N 45°36' W 001°06'1 1.0
2018-Jun-18 05:30N 45°36' W 001°05'2 3.0
2018-Jun-18 05:00N 45°37' W 001°06'613.0
2018-Jun-18 04:30N 45°39' W 001°15'612.0
2018-Jun-18 04:00N 45°36' W 001°22'5 8.8
2018-Jun-18 03:28N 45°39' W 001°27'6 7.5
2018-Jun-18 02:43N 45°44' W 001°32'2 8.4
2018-Jun-18 02:27N 45°46' W 001°30'3 7.0
2018-Jun-18 02:00N 45°48' W 001°27'1 1.8
2018-Jun-18 01:30N 45°49' W 001°27'2 4.2
2018-Jun-18 01:00N 45°51' W 001°28'2 4.8
2018-Jun-18 00:30N 45°53' W 001°29'2 4.3
2018-Jun-18 00:00N 45°55' W 001°30'2 4.0
2018-Jun-17 23:30N 45°57' W 001°29'2 4.6
2018-Jun-17 23:00N 45°59' W 001°30'2 4.8
2018-Jun-17 22:30N 46°02' W 001°31'2 4.0
2018-Jun-17 22:00N 46°03' W 001°29'3 5.0
2018-Jun-17 21:30N 46°05' W 001°27'3 5.1
2018-Jun-17 21:00N 46°05' W 001°23'2 4.7
2018-Jun-17 20:30N 46°06' W 001°20'2 4.5
2018-Jun-17 20:00N 46°06' W 001°17'4 7.9
2018-Jun-17 19:30N 46°09' W 001°14'0 0.2
2018-Jun-17 19:00N 46°09' W 001°14'0 0.0
2018-Jun-17 18:30N 46°09' W 001°14'0 0.0
2018-Jun-17 18:00N 46°09' W 001°14'2 4.1
2018-Jun-17 17:30N 46°08' W 001°15'2 4.6
2018-Jun-17 17:00N 46°06' W 001°16'1 1.2
2018-Jun-17 16:30N 46°05' W 001°17'2 4.2
2018-Jun-17 16:00N 46°06' W 001°20'4 7.4
2018-Jun-17 15:30N 46°06' W 001°25'4 8.7
2018-Jun-17 15:00N 46°06' W 001°31'2 4.4
2018-Jun-17 14:30N 46°05' W 001°35'1 1.4
2018-Jun-17 14:01N 46°05' W 001°34'1 1.5
2018-Jun-17 13:30N 46°05' W 001°35'1 1.3
2018-Jun-17 13:00N 46°05' W 001°34'4 7.4
2018-Jun-17 12:30N 46°06' W 001°29'612.2
2018-Jun-17 12:00N 46°06' W 001°20'5 9.5
2018-Jun-17 11:31N 46°09' W 001°14'1 1.4
2018-Jun-17 11:00N 46°10' W 001°13'0 0.0
2018-Jun-17 10:30N 46°10' W 001°13'0 0.0
2018-Jun-17 10:00N 46°10' W 001°14'0 0.0
2018-Jun-17 09:30N 46°10' W 001°13'1 2.5
2018-Jun-17 09:00N 46°09' W 001°15'4 7.6
2018-Jun-17 08:30N 46°06' W 001°19'3 6.4
2018-Jun-17 08:00N 46°06' W 001°24'2 4.6
2018-Jun-17 07:30N 46°06' W 001°27'3 5.3
2018-Jun-17 07:00N 46°05' W 001°31'3 5.1
2018-Jun-17 06:30N 46°05' W 001°34'0 0.3
2018-Jun-17 06:00N 46°05' W 001°35'0 0.8
2018-Jun-17 05:30N 46°05' W 001°34'0 0.2
2018-Jun-17 05:00N 46°05' W 001°34'4 7.9
2018-Jun-17 04:30N 46°08' W 001°38'612.7
2018-Jun-17 04:00N 46°13' W 001°43'612.7
2018-Jun-17 03:30N 46°18' W 001°49'612.7
2018-Jun-17 03:00N 46°23' W 001°55'612.8
2018-Jun-17 02:30N 46°28' W 002°00'612.6
2018-Jun-17 02:00N 46°34' W 002°05'612.5
2018-Jun-17 01:30N 46°39' W 002°11'612.0
2018-Jun-17 01:00N 46°43' W 002°16'612.0
2018-Jun-17 00:30N 46°48' W 002°21'612.1
2018-Jun-16 23:58N 46°53' W 002°27'511.2
2018-Jun-16 23:30N 46°58' W 002°28'612.7
2018-Jun-16 23:00N 47°04' W 002°25'611.9
2018-Jun-16 22:30N 47°09' W 002°20'714.0
2018-Jun-16 22:00N 47°15' W 002°14'713.9
2018-Jun-16 21:30N 47°18' W 002°05'713.4
2018-Jun-16 21:00N 47°17' W 001°55'713.1
2018-Jun-16 20:31N 47°13' W 001°47'612.2
2018-Jun-16 20:00N 47°12' W 001°39'0 0.9
2018-Jun-16 19:30N 47°12' W 001°38'0 0.0
2018-Jun-16 19:00N 47°12' W 001°38'0 0.0
2018-Jun-16 18:30N 47°12' W 001°38'3 5.0
2018-Jun-16 18:00N 47°12' W 001°42'510.8
2018-Jun-16 17:30N 47°13' W 001°49'611.0
2018-Jun-16 17:00N 47°17' W 001°56'612.3
2018-Jun-16 16:30N 47°18' W 002°04'612.3
2018-Jun-16 16:00N 47°15' W 002°13'612.2
2018-Jun-16 15:31N 47°11' W 002°18'5 9.5
2018-Jun-16 15:00N 47°07' W 002°22'3 6.5
2018-Jun-16 14:30N 47°05' W 002°26'712.9
2018-Jun-16 13:59N 47°01' W 002°33'0 0.5
2018-Jun-16 13:19N 47°00' W 002°33'8 3.7
2018-Jun-16 11:07N 47°05' W 002°44'212.2
2018-Jun-16 10:57N 47°06' W 002°46'612.3
2018-Jun-16 10:29N 47°11' W 002°51'612.6
2018-Jun-16 10:00N 47°16' W 002°56'612.4
2018-Jun-16 09:30N 47°20' W 003°01'611.8
2018-Jun-16 09:00N 47°25' W 003°07'510.9
2018-Jun-16 08:30N 47°29' W 003°12'611.9
2018-Jun-16 08:00N 47°34' W 003°17'612.3
2018-Jun-16 07:30N 47°39' W 003°22'5 9.4
2018-Jun-16 07:00N 47°44' W 003°21'2 3.0
2018-Jun-16 06:30N 47°45' W 003°19'0 0.0
2018-Jun-16 06:00N 47°45' W 003°19'0 0.0
2018-Jun-16 05:30N 47°45' W 003°19'0 0.0
2018-Jun-16 05:00N 47°45' W 003°19'1 1.2
2018-Jun-16 04:30N 47°44' W 003°20'4 8.7
2018-Jun-16 04:00N 47°40' W 003°22'3 5.6
2018-Jun-16 03:30N 47°38' W 003°21'5 9.8
2018-Jun-16 03:00N 47°34' W 003°17'5 9.5
2018-Jun-16 02:30N 47°30' W 003°12'4 8.6
2018-Jun-16 02:00N 47°27' W 003°08'4 7.7
2018-Jun-16 01:30N 47°23' W 003°05'4 8.6
2018-Jun-16 01:00N 47°20' W 003°02'4 8.7
2018-Jun-16 00:30N 47°17' W 002°57'4 8.6
2018-Jun-16 00:00N 47°13' W 002°53'4 8.6
2018-Jun-15 23:30N 47°10' W 002°49'4 8.1
2018-Jun-15 23:00N 47°07' W 002°45'4 8.6
2018-Jun-15 22:30N 47°04' W 002°41'510.5
2018-Jun-15 22:00N 46°60' W 002°36'510.8
2018-Jun-15 21:30N 46°55' W 002°32'611.0
2018-Jun-15 21:00N 46°51' W 002°26'610.9
2018-Jun-15 20:28N 46°47' W 002°20'511.0
2018-Jun-15 20:00N 46°44' W 002°15'510.8
2018-Jun-15 19:30N 46°40' W 002°10'510.8
2018-Jun-15 19:00N 46°35' W 002°04'510.7
2018-Jun-15 18:30N 46°32' W 001°59'510.5
2018-Jun-15 18:00N 46°28' W 001°53'510.4
2018-Jun-15 17:30N 46°25' W 001°47'3 6.3
2018-Jun-15 17:00N 46°22' W 001°45'0 0.7
2018-Jun-15 16:30N 46°22' W 001°45'1 1.0
2018-Jun-15 16:00N 46°22' W 001°44'1 1.6
2018-Jun-15 15:30N 46°22' W 001°45'612.6
2018-Jun-15 15:00N 46°27' W 001°52'713.2
2018-Jun-15 14:30N 46°32' W 001°58'613.0
2018-Jun-15 14:01N 46°36' W 002°05'712.9
2018-Jun-15 13:30N 46°41' W 002°12'712.5
2018-Jun-15 12:59N 46°46' W 002°18'612.6
2018-Jun-15 12:30N 46°50' W 002°24'612.0
2018-Jun-15 12:00N 46°55' W 002°30'1011.9
2018-Jun-15 11:08N 47°02' W 002°40'411.7
2018-Jun-15 10:48N 47°05' W 002°44'411.9
2018-Jun-15 10:29N 47°08' W 002°48'612.2
2018-Jun-15 10:01N 47°12' W 002°53'612.5
2018-Jun-15 09:30N 47°17' W 002°59'612.5
2018-Jun-15 09:01N 47°22' W 003°05'511.0
2018-Jun-15 08:31N 47°26' W 003°10'611.2
2018-Jun-15 08:01N 47°31' W 003°15'611.7
2018-Jun-15 07:30N 47°36' W 003°19'611.7
2018-Jun-15 07:01N 47°41' W 003°22'4 8.0
2018-Jun-15 06:31N 47°45' W 003°19'0 0.1
2018-Jun-15 06:00N 47°45' W 003°19'0 0.0
2018-Jun-15 05:30N 47°45' W 003°19'0 0.0
2018-Jun-15 05:01N 47°45' W 003°19'0 0.0
2018-Jun-15 04:31N 47°45' W 003°19'0 0.0
2018-Jun-15 04:00N 47°45' W 003°19'1 2.1
2018-Jun-15 03:30N 47°44' W 003°21'5 9.4
2018-Jun-15 03:01N 47°40' W 003°22'510.8
2018-Jun-15 02:30N 47°35' W 003°18'510.8
2018-Jun-15 02:01N 47°31' W 003°13'510.1
2018-Jun-15 01:31N 47°27' W 003°09'510.2
2018-Jun-15 01:00N 47°22' W 003°05'511.0
2018-Jun-15 00:31N 47°18' W 002°59'611.1
2018-Jun-15 00:01N 47°14' W 002°53'611.1
2018-Jun-14 23:30N 47°10' W 002°48'511.0
2018-Jun-14 23:00N 47°06' W 002°43'611.5
2018-Jun-14 22:30N 47°02' W 002°37'2 4.7
2018-Jun-14 21:59N 46°60' W 002°35'1 1.6
2018-Jun-14 21:27N 46°59' W 002°36'1 2.9
2018-Jun-14 21:00N 47°00' W 002°34'1 2.0
2018-Jun-14 20:30N 47°00' W 002°33'612.0
2018-Jun-14 20:01N 47°04' W 002°26'612.0
2018-Jun-14 19:30N 47°09' W 002°20'713.1
2018-Jun-14 19:00N 47°14' W 002°15'612.5
2018-Jun-14 18:30N 47°18' W 002°08'5 9.5
2018-Jun-14 18:00N 47°17' W 002°01'713.2
2018-Jun-14 17:30N 47°16' W 001°51'611.5
2018-Jun-14 17:00N 47°12' W 001°45'5 9.4
2018-Jun-14 16:30N 47°12' W 001°38'0 0.1
2018-Jun-14 16:00N 47°12' W 001°38'0 0.0
2018-Jun-14 15:30N 47°12' W 001°38'0 0.0
2018-Jun-14 15:00N 47°12' W 001°38'3 6.8
2018-Jun-14 14:30N 47°12' W 001°43'611.3
2018-Jun-14 14:00N 47°14' W 001°51'612.0
2018-Jun-14 13:30N 47°17' W 001°59'612.7
2018-Jun-14 13:00N 47°18' W 002°08'613.0
2018-Jun-14 12:30N 47°14' W 002°15'612.7
2018-Jun-14 12:01N 47°09' W 002°20'4 8.7
2018-Jun-14 11:30N 47°05' W 002°24'611.6
2018-Jun-14 11:00N 47°00' W 002°28'4 8.5
2018-Jun-14 10:29N 46°56' W 002°29'4 8.8
2018-Jun-14 09:59N 46°52' W 002°26'510.7
2018-Jun-14 09:31N 46°49' W 002°21'611.1
2018-Jun-14 09:00N 46°44' W 002°15'611.3
2018-Jun-14 08:30N 46°40' W 002°10'611.3
2018-Jun-14 08:00N 46°36' W 002°04'4 8.7
2018-Jun-14 07:31N 46°33' W 001°59'510.0
2018-Jun-14 06:59N 46°29' W 001°55'5 9.6
2018-Jun-14 06:30N 46°25' W 001°51'5 9.3
2018-Jun-14 06:00N 46°22' W 001°46'1 1.8
2018-Jun-14 05:30N 46°22' W 001°44'0 0.9
2018-Jun-14 05:00N 46°22' W 001°45'2 4.2
2018-Jun-14 04:31N 46°24' W 001°46'611.0
2018-Jun-14 04:00N 46°30' W 001°48'0 0.5
2018-Jun-14 03:30N 46°30' W 001°48'0 0.0
2018-Jun-14 03:00N 46°30' W 001°48'0 0.4
2018-Jun-14 02:30N 46°30' W 001°48'2 3.3
2018-Jun-14 02:01N 46°28' W 001°48'2 4.2
2018-Jun-14 01:30N 46°26' W 001°48'2 4.7
2018-Jun-14 01:00N 46°24' W 001°47'2 4.8
2018-Jun-14 00:31N 46°22' W 001°46'2 3.9
2018-Jun-14 00:00N 46°20' W 001°44'1 2.9
2018-Jun-13 23:30N 46°19' W 001°43'2 3.8
2018-Jun-13 23:00N 46°17' W 001°42'2 3.9
2018-Jun-13 22:30N 46°15' W 001°41'2 5.0
2018-Jun-13 22:01N 46°13' W 001°40'4 7.8
2018-Jun-13 21:30N 46°09' W 001°38'4 7.8
2018-Jun-13 21:00N 46°06' W 001°36'1 2.2
2018-Jun-13 20:30N 46°05' W 001°35'1 1.2
2018-Jun-13 20:00N 46°05' W 001°34'1 1.1
2018-Jun-13 19:30N 46°05' W 001°34'0 0.4
2018-Jun-13 19:00N 46°05' W 001°34'1 2.7
2018-Jun-13 18:31N 46°05' W 001°32'611.0
2018-Jun-13 18:00N 46°06' W 001°24'510.9
2018-Jun-13 17:30N 46°06' W 001°17'4 7.7
2018-Jun-13 17:01N 46°09' W 001°14'0 0.0
2018-Jun-13 16:30N 46°09' W 001°14'0 0.0
2018-Jun-13 16:00N 46°09' W 001°14'1 2.3
2018-Jun-13 15:30N 46°09' W 001°15'5 9.4
2018-Jun-13 15:01N 46°06' W 001°20'713.0
2018-Jun-13 14:31N 46°05' W 001°29'3 6.7
2018-Jun-13 14:01N 46°05' W 001°34'0 0.2
2018-Jun-13 13:30N 46°05' W 001°34'1 2.1
2018-Jun-13 13:00N 46°05' W 001°33'510.4
2018-Jun-13 12:30N 46°06' W 001°26'510.3
2018-Jun-13 12:00N 46°06' W 001°18'5 9.0
2018-Jun-13 11:30N 46°09' W 001°14'0 0.7
2018-Jun-13 11:01N 46°10' W 001°14'0 0.0
2018-Jun-13 10:31N 46°10' W 001°13'0 0.0
2018-Jun-13 10:00N 46°10' W 001°14'0 0.0
2018-Jun-13 09:31N 46°10' W 001°13'1 2.5
2018-Jun-13 09:00N 46°09' W 001°15'4 8.2
2018-Jun-13 08:31N 46°06' W 001°19'510.2
2018-Jun-13 08:00N 46°06' W 001°26'5 9.3
2018-Jun-13 07:30N 46°06' W 001°33'1 1.3
2018-Jun-13 07:01N 46°06' W 001°34'1 1.4
2018-Jun-13 06:30N 46°06' W 001°35'0 0.9
2018-Jun-13 06:01N 46°06' W 001°34'2 3.7
2018-Jun-13 05:31N 46°06' W 001°32'713.6
2018-Jun-13 05:01N 46°06' W 001°22'510.6
2018-Jun-13 04:31N 46°08' W 001°15'1 2.9
2018-Jun-13 04:01N 46°09' W 001°14'0 0.0
2018-Jun-13 03:30N 46°09' W 001°14'0 0.0
2018-Jun-13 03:01N 46°09' W 001°14'0 0.2
2018-Jun-13 02:30N 46°09' W 001°14'3 5.9
2018-Jun-13 02:01N 46°07' W 001°16'3 6.0
2018-Jun-13 01:31N 46°06' W 001°20'2 4.9
2018-Jun-13 01:00N 46°06' W 001°23'3 5.4
2018-Jun-13 00:30N 46°06' W 001°27'2 4.6
2018-Jun-13 00:01N 46°06' W 001°30'2 4.3
2018-Jun-12 23:31N 46°05' W 001°33'1 1.6
2018-Jun-12 23:00N 46°05' W 001°35'1 1.4
2018-Jun-12 22:31N 46°05' W 001°34'0 0.9
2018-Jun-12 22:01N 46°06' W 001°34'0 0.6
2018-Jun-12 21:31N 46°05' W 001°34'0 0.3
2018-Jun-12 21:00N 46°05' W 001°34'0 0.8
2018-Jun-12 20:30N 46°05' W 001°35'2 4.7
2018-Jun-12 20:00N 46°05' W 001°31'510.8
2018-Jun-12 19:30N 46°06' W 001°23'611.2
2018-Jun-12 19:01N 46°07' W 001°16'3 6.2
2018-Jun-12 18:31N 46°10' W 001°13'0 0.0
2018-Jun-12 18:00N 46°10' W 001°13'0 0.0
2018-Jun-12 17:30N 46°10' W 001°13'0 0.1
2018-Jun-12 17:01N 46°10' W 001°14'3 5.2
2018-Jun-12 16:31N 46°07' W 001°15'5 9.6
2018-Jun-12 16:00N 46°06' W 001°22'611.4
2018-Jun-12 15:30N 46°05' W 001°30'3 5.5
2018-Jun-12 15:00N 46°05' W 001°34'0 0.9
2018-Jun-12 14:30N 46°05' W 001°35'1 1.1
2018-Jun-12 14:01N 46°05' W 001°34'1 2.8
2018-Jun-12 13:31N 46°05' W 001°32'510.9
2018-Jun-12 13:00N 46°06' W 001°24'511.0
2018-Jun-12 12:31N 46°06' W 001°16'4 7.8
2018-Jun-12 12:01N 46°10' W 001°13'0 0.1
2018-Jun-12 11:30N 46°10' W 001°13'0 0.0
2018-Jun-12 11:00N 46°10' W 001°13'0 0.0
2018-Jun-12 10:30N 46°10' W 001°13'0 0.5
2018-Jun-12 10:00N 46°09' W 001°14'0 0.9
2018-Jun-12 09:30N 46°10' W 001°14'0 0.0
2018-Jun-12 09:01N 46°10' W 001°14'0 0.0
2018-Jun-12 08:31N 46°10' W 001°14'0 0.0
2018-Jun-12 08:01N 46°10' W 001°14'0 0.0
2018-Jun-12 07:31N 46°10' W 001°14'0 0.0
2018-Jun-12 07:01N 46°10' W 001°14'0 0.0
2018-Jun-12 06:31N 46°10' W 001°14'0 0.0
2018-Jun-12 06:00N 46°10' W 001°14'0 0.6
2018-Jun-12 05:30N 46°09' W 001°14'4 8.4
2018-Jun-12 05:01N 46°06' W 001°18'510.4
2018-Jun-12 04:31N 46°06' W 001°26'510.4
2018-Jun-12 04:01N 46°05' W 001°33'1 2.3
2018-Jun-12 03:30N 46°05' W 001°35'1 1.5
2018-Jun-12 03:01N 46°05' W 001°34'1 1.0
2018-Jun-12 02:30N 46°05' W 001°34'2 3.6
2018-Jun-12 02:00N 46°05' W 001°37'2 3.5
2018-Jun-12 01:30N 46°04' W 001°34'2 4.6
2018-Jun-12 01:01N 46°02' W 001°33'3 5.6
2018-Jun-12 00:31N 45°59' W 001°33'3 5.8
2018-Jun-12 00:00N 45°56' W 001°32'3 6.0
2018-Jun-11 23:31N 45°53' W 001°32'4 6.0
2018-Jun-11 22:53N 45°50' W 001°31'7 6.1
2018-Jun-11 21:42N 45°43' W 001°30'2 6.3
2018-Jun-11 21:26N 45°41' W 001°30'3 5.3
2018-Jun-11 20:51N 45°38' W 001°27'2 5.5
2018-Jun-11 20:30N 45°37' W 001°25'3 6.1
2018-Jun-11 20:00N 45°37' W 001°21'611.4
2018-Jun-11 19:30N 45°40' W 001°13'611.7
2018-Jun-11 19:00N 45°37' W 001°06'713.8
2018-Jun-11 18:30N 45°33' W 000°58'5 9.9
2018-Jun-11 18:00N 45°31' W 000°52'0 0.0
2018-Jun-11 17:30N 45°31' W 000°52'0 0.0
2018-Jun-11 17:00N 45°31' W 000°52'0 0.0
2018-Jun-11 16:30N 45°31' W 000°52'0 0.0
2018-Jun-11 16:00N 45°31' W 000°52'3 5.6
2018-Jun-11 15:31N 45°32' W 000°55'611.4
2018-Jun-11 15:00N 45°35' W 001°02'3 5.6
2018-Jun-11 14:31N 45°37' W 001°05'1 1.3
2018-Jun-11 14:00N 45°36' W 001°05'1 1.6
2018-Jun-11 13:30N 45°36' W 001°06'0 1.0
2018-Jun-11 13:01N 45°36' W 001°05'1 2.8
2018-Jun-11 12:30N 45°35' W 001°04'2 3.6
2018-Jun-11 12:00N 45°34' W 001°03'0 0.2
2018-Jun-11 11:24N 45°34' W 001°03'0 0.1
2018-Jun-11 11:00N 45°34' W 001°03'0 0.0
2018-Jun-11 10:30N 45°34' W 001°03'0 0.0
2018-Jun-11 09:57N 45°34' W 001°03'0 0.2
2018-Jun-11 09:18N 45°34' W 001°03'0 0.2
2018-Jun-11 08:51N 45°34' W 001°03'0 0.0
2018-Jun-11 08:30N 45°34' W 001°03'0 0.1
2018-Jun-11 08:00N 45°34' W 001°03'0 0.0
2018-Jun-11 07:24N 45°34' W 001°03'0 0.0
2018-Jun-11 06:54N 45°34' W 001°03'0 0.1
2018-Jun-11 06:30N 45°34' W 001°03'0 0.0
2018-Jun-11 06:00N 45°34' W 001°03'0 0.1
2018-Jun-11 05:30N 45°34' W 001°03'0 0.0
2018-Jun-11 05:00N 45°34' W 001°03'0 0.1
2018-Jun-11 04:30N 45°34' W 001°03'0 0.0
2018-Jun-11 03:57N 45°34' W 001°03'0 0.0
2018-Jun-11 03:06N 45°34' W 001°03'0 0.0
2018-Jun-11 02:57N 45°34' W 001°03'0 0.0
2018-Jun-11 02:24N 45°34' W 001°03'0 0.1
2018-Jun-11 02:00N 45°34' W 001°03'0 0.1
2018-Jun-11 01:21N 45°34' W 001°03'0 0.2
2018-Jun-11 01:00N 45°34' W 001°03'3 5.6
2018-Jun-11 00:30N 45°33' W 000°59'4 7.4
2018-Jun-11 00:00N 45°32' W 000°54'2 4.5
2018-Jun-10 23:30N 45°31' W 000°52'0 0.0
2018-Jun-10 23:00N 45°31' W 000°52'0 0.0
2018-Jun-10 22:30N 45°31' W 000°52'0 0.0
2018-Jun-10 22:00N 45°31' W 000°52'0 0.0
2018-Jun-10 21:30N 45°30' W 000°52'2 4.9
2018-Jun-10 21:00N 45°32' W 000°55'611.4
2018-Jun-10 20:30N 45°35' W 001°02'3 5.8
2018-Jun-10 20:00N 45°36' W 001°05'1 1.6
2018-Jun-10 19:30N 45°37' W 001°06'1 1.2
2018-Jun-10 19:00N 45°36' W 001°05'1 1.1
2018-Jun-10 18:30N 45°36' W 001°06'1 1.6
2018-Jun-10 18:00N 45°36' W 001°05'1 1.1
2018-Jun-10 17:30N 45°36' W 001°06'1 2.8
2018-Jun-10 17:00N 45°37' W 001°07'4 7.7
2018-Jun-10 16:30N 45°39' W 001°12'4 8.0
2018-Jun-10 16:00N 45°38' W 001°17'4 8.6
2018-Jun-10 15:30N 45°36' W 001°23'4 7.9
2018-Jun-10 15:00N 45°39' W 001°26'7 8.1
2018-Jun-10 14:10N 45°45' W 001°30'6 8.1
2018-Jun-10 13:25N 45°51' W 001°34'3 8.2
2018-Jun-10 13:00N 45°54' W 001°36'4 8.2
2018-Jun-10 12:30N 45°58' W 001°39'4 8.2
2018-Jun-10 12:00N 46°01' W 001°42'4 8.3
2018-Jun-10 11:30N 46°05' W 001°45'4 8.3
2018-Jun-10 11:00N 46°08' W 001°47'4 8.1
2018-Jun-10 10:30N 46°12' W 001°50'4 8.1
2018-Jun-10 10:00N 46°15' W 001°53'4 8.3
2018-Jun-10 09:30N 46°19' W 001°56'4 8.3
2018-Jun-10 09:00N 46°22' W 001°59'4 8.2
2018-Jun-10 08:30N 46°26' W 002°02'4 8.2
2018-Jun-10 08:00N 46°30' W 002°05'4 8.4
2018-Jun-10 07:30N 46°33' W 002°08'5 9.2
2018-Jun-10 07:00N 46°37' W 002°11'5 9.2
2018-Jun-10 06:30N 46°41' W 002°14'5 8.9
2018-Jun-10 05:59N 46°45' W 002°18'4 9.0
2018-Jun-10 05:30N 46°49' W 002°22'4 8.0
2018-Jun-10 04:59N 46°52' W 002°25'4 8.3
2018-Jun-10 04:30N 46°55' W 002°29'4 8.8
2018-Jun-10 04:00N 46°59' W 002°28'5 9.1
2018-Jun-10 03:30N 47°04' W 002°26'5 9.9
2018-Jun-10 03:00N 47°08' W 002°22'612.7
2018-Jun-10 02:30N 47°13' W 002°16'713.5
2018-Jun-10 02:00N 47°18' W 002°09'612.6
2018-Jun-10 01:30N 47°17' W 001°60'612.4
2018-Jun-10 01:00N 47°15' W 001°51'611.3
2018-Jun-10 00:30N 47°12' W 001°44'4 8.4
2018-Jun-10 00:00N 47°12' W 001°38'0 0.0
2018-Jun-09 23:30N 47°12' W 001°38'0 0.0
2018-Jun-09 23:00N 47°12' W 001°38'0 0.0
2018-Jun-09 22:30N 47°12' W 001°38'2 3.1
2018-Jun-09 22:00N 47°12' W 001°40'611.1
2018-Jun-09 21:30N 47°13' W 001°48'510.8
2018-Jun-09 21:00N 47°17' W 001°54'510.0
2018-Jun-09 20:30N 47°18' W 002°01'5 9.5
2018-Jun-09 20:00N 47°18' W 002°08'611.7
2018-Jun-09 19:30N 47°14' W 002°15'611.7
2018-Jun-09 19:00N 47°09' W 002°19'4 7.1
2018-Jun-09 18:30N 47°07' W 002°23'3 7.0
2018-Jun-09 18:00N 47°04' W 002°26'3 6.8
2018-Jun-09 17:30N 47°00' W 002°27'3 6.5
2018-Jun-09 17:00N 46°57' W 002°29'3 6.3
2018-Jun-09 16:30N 46°54' W 002°29'3 6.3
2018-Jun-09 16:00N 46°52' W 002°25'6 6.3
2018-Jun-09 15:00N 46°47' W 002°19'3 6.2
2018-Jun-09 14:30N 46°45' W 002°16'3 6.0
2018-Jun-09 14:00N 46°43' W 002°12'3 6.4
2018-Jun-09 13:30N 46°40' W 002°10'3 6.5
2018-Jun-09 13:00N 46°38' W 002°08'3 5.9
2018-Jun-09 12:30N 46°36' W 002°05'3 5.9
2018-Jun-09 12:00N 46°34' W 002°02'3 5.9
2018-Jun-09 11:30N 46°32' W 001°59'3 6.2
2018-Jun-09 11:00N 46°29' W 001°56'4 7.0
2018-Jun-09 10:30N 46°27' W 001°52'4 7.7
2018-Jun-09 10:00N 46°24' W 001°48'3 5.8
2018-Jun-09 09:29N 46°22' W 001°45'0 0.2
2018-Jun-09 09:00N 46°22' W 001°45'0 0.3
2018-Jun-09 08:30N 46°22' W 001°45'1 2.2
2018-Jun-09 08:00N 46°22' W 001°44'5 9.8
2018-Jun-09 07:29N 46°17' W 001°42'510.2
2018-Jun-09 07:00N 46°12' W 001°39'5 9.5
2018-Jun-09 06:30N 46°08' W 001°35'5 9.2
2018-Jun-09 06:00N 46°08' W 001°29'5 9.5
2018-Jun-09 05:30N 46°07' W 001°22'4 8.7
2018-Jun-09 05:00N 46°06' W 001°16'4 7.1
2018-Jun-09 04:30N 46°10' W 001°14'0 0.0
2018-Jun-09 04:00N 46°10' W 001°13'0 0.0
2018-Jun-09 03:30N 46°10' W 001°14'0 0.0
2018-Jun-09 03:00N 46°10' W 001°13'3 6.0
2018-Jun-09 02:30N 46°07' W 001°16'5 9.5
2018-Jun-09 02:00N 46°06' W 001°22'3 7.0
2018-Jun-09 01:30N 46°06' W 001°27'3 6.6
2018-Jun-09 01:00N 46°06' W 001°32'2 3.6
2018-Jun-09 00:30N 46°05' W 001°35'0 0.6
2018-Jun-09 00:00N 46°05' W 001°34'0 0.6
2018-Jun-08 23:30N 46°05' W 001°34'1 1.2
2018-Jun-08 23:00N 46°05' W 001°35'3 6.8
2018-Jun-08 22:30N 46°08' W 001°38'611.5
2018-Jun-08 22:00N 46°13' W 001°42'4 8.7
2018-Jun-08 21:30N 46°16' W 001°46'5 9.3
2018-Jun-08 21:00N 46°20' W 001°49'5 9.4
2018-Jun-08 20:30N 46°24' W 001°53'5 9.4
2018-Jun-08 20:00N 46°28' W 001°57'5 9.4
2018-Jun-08 19:30N 46°32' W 002°01'5 9.4
2018-Jun-08 19:00N 46°35' W 002°05'5 9.4
2018-Jun-08 18:30N 46°39' W 002°09'5 9.3
2018-Jun-08 18:00N 46°43' W 002°13'5 9.0
2018-Jun-08 17:30N 46°46' W 002°17'5 9.0
2018-Jun-08 17:00N 46°50' W 002°22'5 9.3
2018-Jun-08 16:30N 46°53' W 002°26'4 8.3
2018-Jun-08 16:00N 46°57' W 002°28'5 9.6
2018-Jun-08 15:30N 47°02' W 002°26'612.0
2018-Jun-08 15:00N 47°07' W 002°23'611.9
2018-Jun-08 14:30N 47°12' W 002°17'713.5
2018-Jun-08 14:00N 47°17' W 002°10'3 5.3
2018-Jun-08 13:30N 47°18' W 002°07'0 0.0
2018-Jun-08 13:00N 47°18' W 002°07'0 0.0
2018-Jun-08 12:30N 47°18' W 002°07'0 0.0
2018-Jun-08 12:00N 47°18' W 002°07'1 1.8
2018-Jun-08 11:30N 47°18' W 002°08'5 9.7
2018-Jun-08 11:00N 47°15' W 002°14'5 9.9
2018-Jun-08 10:31N 47°11' W 002°18'5 9.0
2018-Jun-08 10:00N 47°07' W 002°22'4 9.0
2018-Jun-08 09:30N 47°04' W 002°26'510.8
2018-Jun-08 09:00N 47°01' W 002°33'2 3.3
2018-Jun-08 08:30N 46°60' W 002°35'1 1.3
2018-Jun-08 08:00N 47°00' W 002°34'0 1.0
2018-Jun-08 07:31N 47°00' W 002°33'1 1.3
2018-Jun-08 07:01N 47°00' W 002°34'1 1.3
2018-Jun-08 06:30N 46°60' W 002°35'1 1.6
2018-Jun-08 06:00N 46°59' W 002°36'  
Track history (hours):
 
Tides and Currents Weather Stations Pressure Air Temp Water Temp Dewpoint Dewpoint Depression Visibility Wind Speed Wind Dir Waves Ship Positions

Andre.l

Last reported at 2018-Jun-18 06:00 UTC. Time now 2018-Jun-18 06:02 UTC.
Position N 45°36' W 001°06'.

Length 84 m; draft 5.1 m.

Type: Cargo ship. MMSI: 228219600.

Date/timePositionNaut miles runAvg speedWind from/ knotsBaromVisibWave heightAir tempDewpointWater temp
2018-Jun-18 06:00N 45°36' W 001°06'1 1.0
2018-Jun-18 05:30N 45°36' W 001°05'2 3.0
2018-Jun-18 05:00N 45°37' W 001°06'613.0
2018-Jun-18 04:30N 45°39' W 001°15'612.0
2018-Jun-18 04:00N 45°36' W 001°22'5 8.8
2018-Jun-18 03:28N 45°39' W 001°27'6 7.5
2018-Jun-18 02:43N 45°44' W 001°32'2 8.4
2018-Jun-18 02:27N 45°46' W 001°30'3 7.0
2018-Jun-18 02:00N 45°48' W 001°27'1 1.8
2018-Jun-18 01:30N 45°49' W 001°27'2 4.2
2018-Jun-18 01:00N 45°51' W 001°28'2 4.8
2018-Jun-18 00:30N 45°53' W 001°29'2 4.3
2018-Jun-18 00:00N 45°55' W 001°30'2 4.0
2018-Jun-17 23:30N 45°57' W 001°29'2 4.6
2018-Jun-17 23:00N 45°59' W 001°30'2 4.8
2018-Jun-17 22:30N 46°02' W 001°31'2 4.0
2018-Jun-17 22:00N 46°03' W 001°29'3 5.0
2018-Jun-17 21:30N 46°05' W 001°27'3 5.1
2018-Jun-17 21:00N 46°05' W 001°23'2 4.7
2018-Jun-17 20:30N 46°06' W 001°20'2 4.5
2018-Jun-17 20:00N 46°06' W 001°17'4 7.9
2018-Jun-17 19:30N 46°09' W 001°14'0 0.2
2018-Jun-17 19:00N 46°09' W 001°14'0 0.0
2018-Jun-17 18:30N 46°09' W 001°14'0 0.0
2018-Jun-17 18:00N 46°09' W 001°14'2 4.1
2018-Jun-17 17:30N 46°08' W 001°15'2 4.6
2018-Jun-17 17:00N 46°06' W 001°16'1 1.2
2018-Jun-17 16:30N 46°05' W 001°17'2 4.2
2018-Jun-17 16:00N 46°06' W 001°20'4 7.4
2018-Jun-17 15:30N 46°06' W 001°25'4 8.7
2018-Jun-17 15:00N 46°06' W 001°31'2 4.4
2018-Jun-17 14:30N 46°05' W 001°35'1 1.4
2018-Jun-17 14:01N 46°05' W 001°34'1 1.5
2018-Jun-17 13:30N 46°05' W 001°35'1 1.3
2018-Jun-17 13:00N 46°05' W 001°34'4 7.4
2018-Jun-17 12:30N 46°06' W 001°29'612.2
2018-Jun-17 12:00N 46°06' W 001°20'5 9.5
2018-Jun-17 11:31N 46°09' W 001°14'1 1.4
2018-Jun-17 11:00N 46°10' W 001°13'0 0.0
2018-Jun-17 10:30N 46°10' W 001°13'0 0.0
2018-Jun-17 10:00N 46°10' W 001°14'0 0.0
2018-Jun-17 09:30N 46°10' W 001°13'1 2.5
2018-Jun-17 09:00N 46°09' W 001°15'4 7.6
2018-Jun-17 08:30N 46°06' W 001°19'3 6.4
2018-Jun-17 08:00N 46°06' W 001°24'2 4.6
2018-Jun-17 07:30N 46°06' W 001°27'3 5.3
2018-Jun-17 07:00N 46°05' W 001°31'3 5.1
2018-Jun-17 06:30N 46°05' W 001°34'0 0.3
2018-Jun-17 06:00N 46°05' W 001°35'0 0.8
2018-Jun-17 05:30N 46°05' W 001°34'0 0.2
2018-Jun-17 05:00N 46°05' W 001°34'4 7.9
2018-Jun-17 04:30N 46°08' W 001°38'612.7
2018-Jun-17 04:00N 46°13' W 001°43'612.7
2018-Jun-17 03:30N 46°18' W 001°49'612.7
2018-Jun-17 03:00N 46°23' W 001°55'612.8
2018-Jun-17 02:30N 46°28' W 002°00'612.6
2018-Jun-17 02:00N 46°34' W 002°05'612.5
2018-Jun-17 01:30N 46°39' W 002°11'612.0
2018-Jun-17 01:00N 46°43' W 002°16'612.0
2018-Jun-17 00:30N 46°48' W 002°21'612.1
2018-Jun-16 23:58N 46°53' W 002°27'511.2
2018-Jun-16 23:30N 46°58' W 002°28'612.7
2018-Jun-16 23:00N 47°04' W 002°25'611.9
2018-Jun-16 22:30N 47°09' W 002°20'714.0
2018-Jun-16 22:00N 47°15' W 002°14'713.9
2018-Jun-16 21:30N 47°18' W 002°05'713.4
2018-Jun-16 21:00N 47°17' W 001°55'713.1
2018-Jun-16 20:31N 47°13' W 001°47'612.2
2018-Jun-16 20:00N 47°12' W 001°39'0 0.9
2018-Jun-16 19:30N 47°12' W 001°38'0 0.0
2018-Jun-16 19:00N 47°12' W 001°38'0 0.0
2018-Jun-16 18:30N 47°12' W 001°38'3 5.0
2018-Jun-16 18:00N 47°12' W 001°42'510.8
2018-Jun-16 17:30N 47°13' W 001°49'611.0
2018-Jun-16 17:00N 47°17' W 001°56'612.3
2018-Jun-16 16:30N 47°18' W 002°04'612.3
2018-Jun-16 16:00N 47°15' W 002°13'612.2
2018-Jun-16 15:31N 47°11' W 002°18'5 9.5
2018-Jun-16 15:00N 47°07' W 002°22'3 6.5
2018-Jun-16 14:30N 47°05' W 002°26'712.9
2018-Jun-16 13:59N 47°01' W 002°33'0 0.5
2018-Jun-16 13:19N 47°00' W 002°33'8 3.7
2018-Jun-16 11:07N 47°05' W 002°44'212.2
2018-Jun-16 10:57N 47°06' W 002°46'612.3
2018-Jun-16 10:29N 47°11' W 002°51'612.6
2018-Jun-16 10:00N 47°16' W 002°56'612.4
2018-Jun-16 09:30N 47°20' W 003°01'611.8
2018-Jun-16 09:00N 47°25' W 003°07'510.9
2018-Jun-16 08:30N 47°29' W 003°12'611.9
2018-Jun-16 08:00N 47°34' W 003°17'612.3
2018-Jun-16 07:30N 47°39' W 003°22'5 9.4
2018-Jun-16 07:00N 47°44' W 003°21'2 3.0
2018-Jun-16 06:30N 47°45' W 003°19'0 0.0
2018-Jun-16 06:00N 47°45' W 003°19'0 0.0
2018-Jun-16 05:30N 47°45' W 003°19'0 0.0
2018-Jun-16 05:00N 47°45' W 003°19'1 1.2
2018-Jun-16 04:30N 47°44' W 003°20'4 8.7
2018-Jun-16 04:00N 47°40' W 003°22'3 5.6
2018-Jun-16 03:30N 47°38' W 003°21'5 9.8
2018-Jun-16 03:00N 47°34' W 003°17'5 9.5
2018-Jun-16 02:30N 47°30' W 003°12'4 8.6
2018-Jun-16 02:00N 47°27' W 003°08'4 7.7
2018-Jun-16 01:30N 47°23' W 003°05'4 8.6
2018-Jun-16 01:00N 47°20' W 003°02'4 8.7
2018-Jun-16 00:30N 47°17' W 002°57'4 8.6
2018-Jun-16 00:00N 47°13' W 002°53'4 8.6
2018-Jun-15 23:30N 47°10' W 002°49'4 8.1
2018-Jun-15 23:00N 47°07' W 002°45'4 8.6
2018-Jun-15 22:30N 47°04' W 002°41'510.5
2018-Jun-15 22:00N 46°60' W 002°36'510.8
2018-Jun-15 21:30N 46°55' W 002°32'611.0
2018-Jun-15 21:00N 46°51' W 002°26'610.9
2018-Jun-15 20:28N 46°47' W 002°20'511.0
2018-Jun-15 20:00N 46°44' W 002°15'510.8
2018-Jun-15 19:30N 46°40' W 002°10'510.8
2018-Jun-15 19:00N 46°35' W 002°04'510.7
2018-Jun-15 18:30N 46°32' W 001°59'510.5
2018-Jun-15 18:00N 46°28' W 001°53'510.4
2018-Jun-15 17:30N 46°25' W 001°47'3 6.3
2018-Jun-15 17:00N 46°22' W 001°45'0 0.7
2018-Jun-15 16:30N 46°22' W 001°45'1 1.0
2018-Jun-15 16:00N 46°22' W 001°44'1 1.6
2018-Jun-15 15:30N 46°22' W 001°45'612.6
2018-Jun-15 15:00N 46°27' W 001°52'713.2
2018-Jun-15 14:30N 46°32' W 001°58'613.0
2018-Jun-15 14:01N 46°36' W 002°05'712.9
2018-Jun-15 13:30N 46°41' W 002°12'712.5
2018-Jun-15 12:59N 46°46' W 002°18'612.6
2018-Jun-15 12:30N 46°50' W 002°24'612.0
2018-Jun-15 12:00N 46°55' W 002°30'1011.9
2018-Jun-15 11:08N 47°02' W 002°40'411.7
2018-Jun-15 10:48N 47°05' W 002°44'411.9
2018-Jun-15 10:29N 47°08' W 002°48'612.2
2018-Jun-15 10:01N 47°12' W 002°53'612.5
2018-Jun-15 09:30N 47°17' W 002°59'612.5
2018-Jun-15 09:01N 47°22' W 003°05'511.0
2018-Jun-15 08:31N 47°26' W 003°10'611.2
2018-Jun-15 08:01N 47°31' W 003°15'611.7
2018-Jun-15 07:30N 47°36' W 003°19'611.7
2018-Jun-15 07:01N 47°41' W 003°22'4 8.0
2018-Jun-15 06:31N 47°45' W 003°19'0 0.1
2018-Jun-15 06:00N 47°45' W 003°19'0 0.0
2018-Jun-15 05:30N 47°45' W 003°19'0 0.0
2018-Jun-15 05:01N 47°45' W 003°19'0 0.0
2018-Jun-15 04:31N 47°45' W 003°19'0 0.0
2018-Jun-15 04:00N 47°45' W 003°19'1 2.1
2018-Jun-15 03:30N 47°44' W 003°21'5 9.4
2018-Jun-15 03:01N 47°40' W 003°22'510.8
2018-Jun-15 02:30N 47°35' W 003°18'510.8
2018-Jun-15 02:01N 47°31' W 003°13'510.1
2018-Jun-15 01:31N 47°27' W 003°09'510.2
2018-Jun-15 01:00N 47°22' W 003°05'511.0
2018-Jun-15 00:31N 47°18' W 002°59'611.1
2018-Jun-15 00:01N 47°14' W 002°53'611.1
2018-Jun-14 23:30N 47°10' W 002°48'511.0
2018-Jun-14 23:00N 47°06' W 002°43'611.5
2018-Jun-14 22:30N 47°02' W 002°37'2 4.7
2018-Jun-14 21:59N 46°60' W 002°35'1 1.6
2018-Jun-14 21:27N 46°59' W 002°36'1 2.9
2018-Jun-14 21:00N 47°00' W 002°34'1 2.0
2018-Jun-14 20:30N 47°00' W 002°33'612.0
2018-Jun-14 20:01N 47°04' W 002°26'612.0
2018-Jun-14 19:30N 47°09' W 002°20'713.1
2018-Jun-14 19:00N 47°14' W 002°15'612.5
2018-Jun-14 18:30N 47°18' W 002°08'5 9.5
2018-Jun-14 18:00N 47°17' W 002°01'713.2
2018-Jun-14 17:30N 47°16' W 001°51'611.5
2018-Jun-14 17:00N 47°12' W 001°45'5 9.4
2018-Jun-14 16:30N 47°12' W 001°38'0 0.1
2018-Jun-14 16:00N 47°12' W 001°38'0 0.0
2018-Jun-14 15:30N 47°12' W 001°38'0 0.0
2018-Jun-14 15:00N 47°12' W 001°38'3 6.8
2018-Jun-14 14:30N 47°12' W 001°43'611.3
2018-Jun-14 14:00N 47°14' W 001°51'612.0
2018-Jun-14 13:30N 47°17' W 001°59'612.7
2018-Jun-14 13:00N 47°18' W 002°08'613.0
2018-Jun-14 12:30N 47°14' W 002°15'612.7
2018-Jun-14 12:01N 47°09' W 002°20'4 8.7
2018-Jun-14 11:30N 47°05' W 002°24'611.6
2018-Jun-14 11:00N 47°00' W 002°28'4 8.5
2018-Jun-14 10:29N 46°56' W 002°29'4 8.8
2018-Jun-14 09:59N 46°52' W 002°26'510.7
2018-Jun-14 09:31N 46°49' W 002°21'611.1
2018-Jun-14 09:00N 46°44' W 002°15'611.3
2018-Jun-14 08:30N 46°40' W 002°10'611.3
2018-Jun-14 08:00N 46°36' W 002°04'4 8.7
2018-Jun-14 07:31N 46°33' W 001°59'510.0
2018-Jun-14 06:59N 46°29' W 001°55'5 9.6
2018-Jun-14 06:30N 46°25' W 001°51'5 9.3
2018-Jun-14 06:00N 46°22' W 001°46'1 1.8
2018-Jun-14 05:30N 46°22' W 001°44'0 0.9
2018-Jun-14 05:00N 46°22' W 001°45'2 4.2
2018-Jun-14 04:31N 46°24' W 001°46'611.0
2018-Jun-14 04:00N 46°30' W 001°48'0 0.5
2018-Jun-14 03:30N 46°30' W 001°48'0 0.0
2018-Jun-14 03:00N 46°30' W 001°48'0 0.4
2018-Jun-14 02:30N 46°30' W 001°48'2 3.3
2018-Jun-14 02:01N 46°28' W 001°48'2 4.2
2018-Jun-14 01:30N 46°26' W 001°48'2 4.7
2018-Jun-14 01:00N 46°24' W 001°47'2 4.8
2018-Jun-14 00:31N 46°22' W 001°46'2 3.9
2018-Jun-14 00:00N 46°20' W 001°44'1 2.9
2018-Jun-13 23:30N 46°19' W 001°43'2 3.8
2018-Jun-13 23:00N 46°17' W 001°42'2 3.9
2018-Jun-13 22:30N 46°15' W 001°41'2 5.0
2018-Jun-13 22:01N 46°13' W 001°40'4 7.8
2018-Jun-13 21:30N 46°09' W 001°38'4 7.8
2018-Jun-13 21:00N 46°06' W 001°36'1 2.2
2018-Jun-13 20:30N 46°05' W 001°35'1 1.2
2018-Jun-13 20:00N 46°05' W 001°34'1 1.1
2018-Jun-13 19:30N 46°05' W 001°34'0 0.4
2018-Jun-13 19:00N 46°05' W 001°34'1 2.7
2018-Jun-13 18:31N 46°05' W 001°32'611.0
2018-Jun-13 18:00N 46°06' W 001°24'510.9
2018-Jun-13 17:30N 46°06' W 001°17'4 7.7
2018-Jun-13 17:01N 46°09' W 001°14'0 0.0
2018-Jun-13 16:30N 46°09' W 001°14'0 0.0
2018-Jun-13 16:00N 46°09' W 001°14'1 2.3
2018-Jun-13 15:30N 46°09' W 001°15'5 9.4
2018-Jun-13 15:01N 46°06' W 001°20'713.0
2018-Jun-13 14:31N 46°05' W 001°29'3 6.7
2018-Jun-13 14:01N 46°05' W 001°34'0 0.2
2018-Jun-13 13:30N 46°05' W 001°34'1 2.1
2018-Jun-13 13:00N 46°05' W 001°33'510.4
2018-Jun-13 12:30N 46°06' W 001°26'510.3
2018-Jun-13 12:00N 46°06' W 001°18'5 9.0
2018-Jun-13 11:30N 46°09' W 001°14'0 0.7
2018-Jun-13 11:01N 46°10' W 001°14'0 0.0
2018-Jun-13 10:31N 46°10' W 001°13'0 0.0
2018-Jun-13 10:00N 46°10' W 001°14'0 0.0
2018-Jun-13 09:31N 46°10' W 001°13'1 2.5
2018-Jun-13 09:00N 46°09' W 001°15'4 8.2
2018-Jun-13 08:31N 46°06' W 001°19'510.2
2018-Jun-13 08:00N 46°06' W 001°26'5 9.3
2018-Jun-13 07:30N 46°06' W 001°33'1 1.3
2018-Jun-13 07:01N 46°06' W 001°34'1 1.4
2018-Jun-13 06:30N 46°06' W 001°35'0 0.9
2018-Jun-13 06:01N 46°06' W 001°34'2 3.7
2018-Jun-13 05:31N 46°06' W 001°32'713.6
2018-Jun-13 05:01N 46°06' W 001°22'510.6
2018-Jun-13 04:31N 46°08' W 001°15'1 2.9
2018-Jun-13 04:01N 46°09' W 001°14'0 0.0
2018-Jun-13 03:30N 46°09' W 001°14'0 0.0
2018-Jun-13 03:01N 46°09' W 001°14'0 0.2
2018-Jun-13 02:30N 46°09' W 001°14'3 5.9
2018-Jun-13 02:01N 46°07' W 001°16'3 6.0
2018-Jun-13 01:31N 46°06' W 001°20'2 4.9
2018-Jun-13 01:00N 46°06' W 001°23'3 5.4
2018-Jun-13 00:30N 46°06' W 001°27'2 4.6
2018-Jun-13 00:01N 46°06' W 001°30'2 4.3
2018-Jun-12 23:31N 46°05' W 001°33'1 1.6
2018-Jun-12 23:00N 46°05' W 001°35'1 1.4
2018-Jun-12 22:31N 46°05' W 001°34'0 0.9
2018-Jun-12 22:01N 46°06' W 001°34'0 0.6
2018-Jun-12 21:31N 46°05' W 001°34'0 0.3
2018-Jun-12 21:00N 46°05' W 001°34'0 0.8
2018-Jun-12 20:30N 46°05' W 001°35'2 4.7
2018-Jun-12 20:00N 46°05' W 001°31'510.8
2018-Jun-12 19:30N 46°06' W 001°23'611.2
2018-Jun-12 19:01N 46°07' W 001°16'3 6.2
2018-Jun-12 18:31N 46°10' W 001°13'0 0.0
2018-Jun-12 18:00N 46°10' W 001°13'0 0.0
2018-Jun-12 17:30N 46°10' W 001°13'0 0.1
2018-Jun-12 17:01N 46°10' W 001°14'3 5.2
2018-Jun-12 16:31N 46°07' W 001°15'5 9.6
2018-Jun-12 16:00N 46°06' W 001°22'611.4
2018-Jun-12 15:30N 46°05' W 001°30'3 5.5
2018-Jun-12 15:00N 46°05' W 001°34'0 0.9
2018-Jun-12 14:30N 46°05' W 001°35'1 1.1
2018-Jun-12 14:01N 46°05' W 001°34'1 2.8
2018-Jun-12 13:31N 46°05' W 001°32'510.9
2018-Jun-12 13:00N 46°06' W 001°24'511.0
2018-Jun-12 12:31N 46°06' W 001°16'4 7.8
2018-Jun-12 12:01N 46°10' W 001°13'0 0.1
2018-Jun-12 11:30N 46°10' W 001°13'0 0.0
2018-Jun-12 11:00N 46°10' W 001°13'0 0.0
2018-Jun-12 10:30N 46°10' W 001°13'0 0.5
2018-Jun-12 10:00N 46°09' W 001°14'0 0.9
2018-Jun-12 09:30N 46°10' W 001°14'0 0.0
2018-Jun-12 09:01N 46°10' W 001°14'0 0.0
2018-Jun-12 08:31N 46°10' W 001°14'0 0.0
2018-Jun-12 08:01N 46°10' W 001°14'0 0.0
2018-Jun-12 07:31N 46°10' W 001°14'0 0.0
2018-Jun-12 07:01N 46°10' W 001°14'0 0.0
2018-Jun-12 06:31N 46°10' W 001°14'0 0.0
2018-Jun-12 06:00N 46°10' W 001°14'0 0.6
2018-Jun-12 05:30N 46°09' W 001°14'4 8.4
2018-Jun-12 05:01N 46°06' W 001°18'510.4
2018-Jun-12 04:31N 46°06' W 001°26'510.4
2018-Jun-12 04:01N 46°05' W 001°33'1 2.3
2018-Jun-12 03:30N 46°05' W 001°35'1 1.5
2018-Jun-12 03:01N 46°05' W 001°34'1 1.0
2018-Jun-12 02:30N 46°05' W 001°34'2 3.6
2018-Jun-12 02:00N 46°05' W 001°37'2 3.5
2018-Jun-12 01:30N 46°04' W 001°34'2 4.6
2018-Jun-12 01:01N 46°02' W 001°33'3 5.6
2018-Jun-12 00:31N 45°59' W 001°33'3 5.8
2018-Jun-12 00:00N 45°56' W 001°32'3 6.0
2018-Jun-11 23:31N 45°53' W 001°32'4 6.0
2018-Jun-11 22:53N 45°50' W 001°31'7 6.1
2018-Jun-11 21:42N 45°43' W 001°30'2 6.3
2018-Jun-11 21:26N 45°41' W 001°30'3 5.3
2018-Jun-11 20:51N 45°38' W 001°27'2 5.5
2018-Jun-11 20:30N 45°37' W 001°25'3 6.1
2018-Jun-11 20:00N 45°37' W 001°21'611.4
2018-Jun-11 19:30N 45°40' W 001°13'611.7
2018-Jun-11 19:00N 45°37' W 001°06'713.8
2018-Jun-11 18:30N 45°33' W 000°58'5 9.9
2018-Jun-11 18:00N 45°31' W 000°52'0 0.0
2018-Jun-11 17:30N 45°31' W 000°52'0 0.0
2018-Jun-11 17:00N 45°31' W 000°52'0 0.0
2018-Jun-11 16:30N 45°31' W 000°52'0 0.0
2018-Jun-11 16:00N 45°31' W 000°52'3 5.6
2018-Jun-11 15:31N 45°32' W 000°55'611.4
2018-Jun-11 15:00N 45°35' W 001°02'3 5.6
2018-Jun-11 14:31N 45°37' W 001°05'1 1.3
2018-Jun-11 14:00N 45°36' W 001°05'1 1.6
2018-Jun-11 13:30N 45°36' W 001°06'0 1.0
2018-Jun-11 13:01N 45°36' W 001°05'1 2.8
2018-Jun-11 12:30N 45°35' W 001°04'2 3.6
2018-Jun-11 12:00N 45°34' W 001°03'0 0.2
2018-Jun-11 11:24N 45°34' W 001°03'0 0.1
2018-Jun-11 11:00N 45°34' W 001°03'0 0.0
2018-Jun-11 10:30N 45°34' W 001°03'0 0.0
2018-Jun-11 09:57N 45°34' W 001°03'0 0.2
2018-Jun-11 09:18N 45°34' W 001°03'0 0.2
2018-Jun-11 08:51N 45°34' W 001°03'0 0.0
2018-Jun-11 08:30N 45°34' W 001°03'0 0.1
2018-Jun-11 08:00N 45°34' W 001°03'0 0.0
2018-Jun-11 07:24N 45°34' W 001°03'0 0.0
2018-Jun-11 06:54N 45°34' W 001°03'0 0.1
2018-Jun-11 06:30N 45°34' W 001°03'0 0.0
2018-Jun-11 06:00N 45°34' W 001°03'0 0.1
2018-Jun-11 05:30N 45°34' W 001°03'0 0.0
2018-Jun-11 05:00N 45°34' W 001°03'0 0.1
2018-Jun-11 04:30N 45°34' W 001°03'0 0.0
2018-Jun-11 03:57N 45°34' W 001°03'0 0.0
2018-Jun-11 03:06N 45°34' W 001°03'0 0.0
2018-Jun-11 02:57N 45°34' W 001°03'0 0.0
2018-Jun-11 02:24N 45°34' W 001°03'0 0.1
2018-Jun-11 02:00N 45°34' W 001°03'0 0.1
2018-Jun-11 01:21N 45°34' W 001°03'0 0.2
2018-Jun-11 01:00N 45°34' W 001°03'3 5.6
2018-Jun-11 00:30N 45°33' W 000°59'4 7.4
2018-Jun-11 00:00N 45°32' W 000°54'2 4.5
2018-Jun-10 23:30N 45°31' W 000°52'0 0.0
2018-Jun-10 23:00N 45°31' W 000°52'0 0.0
2018-Jun-10 22:30N 45°31' W 000°52'0 0.0
2018-Jun-10 22:00N 45°31' W 000°52'0 0.0
2018-Jun-10 21:30N 45°30' W 000°52'2 4.9
2018-Jun-10 21:00N 45°32' W 000°55'611.4
2018-Jun-10 20:30N 45°35' W 001°02'3 5.8
2018-Jun-10 20:00N 45°36' W 001°05'1 1.6
2018-Jun-10 19:30N 45°37' W 001°06'1 1.2
2018-Jun-10 19:00N 45°36' W 001°05'1 1.1
2018-Jun-10 18:30N 45°36' W 001°06'1 1.6
2018-Jun-10 18:00N 45°36' W 001°05'1 1.1
2018-Jun-10 17:30N 45°36' W 001°06'1 2.8
2018-Jun-10 17:00N 45°37' W 001°07'4 7.7
2018-Jun-10 16:30N 45°39' W 001°12'4 8.0
2018-Jun-10 16:00N 45°38' W 001°17'4 8.6
2018-Jun-10 15:30N 45°36' W 001°23'4 7.9
2018-Jun-10 15:00N 45°39' W 001°26'7 8.1
2018-Jun-10 14:10N 45°45' W 001°30'6 8.1
2018-Jun-10 13:25N 45°51' W 001°34'3 8.2
2018-Jun-10 13:00N 45°54' W 001°36'4 8.2
2018-Jun-10 12:30N 45°58' W 001°39'4 8.2
2018-Jun-10 12:00N 46°01' W 001°42'4 8.3
2018-Jun-10 11:30N 46°05' W 001°45'4 8.3
2018-Jun-10 11:00N 46°08' W 001°47'4 8.1
2018-Jun-10 10:30N 46°12' W 001°50'4 8.1
2018-Jun-10 10:00N 46°15' W 001°53'4 8.3
2018-Jun-10 09:30N 46°19' W 001°56'4 8.3
2018-Jun-10 09:00N 46°22' W 001°59'4 8.2
2018-Jun-10 08:30N 46°26' W 002°02'4 8.2
2018-Jun-10 08:00N 46°30' W 002°05'4 8.4
2018-Jun-10 07:30N 46°33' W 002°08'5 9.2
2018-Jun-10 07:00N 46°37' W 002°11'5 9.2
2018-Jun-10 06:30N 46°41' W 002°14'5 8.9
2018-Jun-10 05:59N 46°45' W 002°18'4 9.0
2018-Jun-10 05:30N 46°49' W 002°22'4 8.0
2018-Jun-10 04:59N 46°52' W 002°25'4 8.3
2018-Jun-10 04:30N 46°55' W 002°29'4 8.8
2018-Jun-10 04:00N 46°59' W 002°28'5 9.1
2018-Jun-10 03:30N 47°04' W 002°26'5 9.9
2018-Jun-10 03:00N 47°08' W 002°22'612.7
2018-Jun-10 02:30N 47°13' W 002°16'713.5
2018-Jun-10 02:00N 47°18' W 002°09'612.6
2018-Jun-10 01:30N 47°17' W 001°60'612.4
2018-Jun-10 01:00N 47°15' W 001°51'611.3
2018-Jun-10 00:30N 47°12' W 001°44'4 8.4
2018-Jun-10 00:00N 47°12' W 001°38'0 0.0
2018-Jun-09 23:30N 47°12' W 001°38'0 0.0
2018-Jun-09 23:00N 47°12' W 001°38'0 0.0
2018-Jun-09 22:30N 47°12' W 001°38'2 3.1
2018-Jun-09 22:00N 47°12' W 001°40'611.1
2018-Jun-09 21:30N 47°13' W 001°48'510.8
2018-Jun-09 21:00N 47°17' W 001°54'510.0
2018-Jun-09 20:30N 47°18' W 002°01'5 9.5
2018-Jun-09 20:00N 47°18' W 002°08'611.7
2018-Jun-09 19:30N 47°14' W 002°15'611.7
2018-Jun-09 19:00N 47°09' W 002°19'4 7.1
2018-Jun-09 18:30N 47°07' W 002°23'3 7.0
2018-Jun-09 18:00N 47°04' W 002°26'3 6.8
2018-Jun-09 17:30N 47°00' W 002°27'3 6.5
2018-Jun-09 17:00N 46°57' W 002°29'3 6.3
2018-Jun-09 16:30N 46°54' W 002°29'3 6.3
2018-Jun-09 16:00N 46°52' W 002°25'6 6.3
2018-Jun-09 15:00N 46°47' W 002°19'3 6.2
2018-Jun-09 14:30N 46°45' W 002°16'3 6.0
2018-Jun-09 14:00N 46°43' W 002°12'3 6.4
2018-Jun-09 13:30N 46°40' W 002°10'3 6.5
2018-Jun-09 13:00N 46°38' W 002°08'3 5.9
2018-Jun-09 12:30N 46°36' W 002°05'3 5.9
2018-Jun-09 12:00N 46°34' W 002°02'3 5.9
2018-Jun-09 11:30N 46°32' W 001°59'3 6.2
2018-Jun-09 11:00N 46°29' W 001°56'4 7.0
2018-Jun-09 10:30N 46°27' W 001°52'4 7.7
2018-Jun-09 10:00N 46°24' W 001°48'3 5.8
2018-Jun-09 09:29N 46°22' W 001°45'0 0.2
2018-Jun-09 09:00N 46°22' W 001°45'0 0.3
2018-Jun-09 08:30N 46°22' W 001°45'1 2.2
2018-Jun-09 08:00N 46°22' W 001°44'5 9.8
2018-Jun-09 07:29N 46°17' W 001°42'510.2
2018-Jun-09 07:00N 46°12' W 001°39'5 9.5
2018-Jun-09 06:30N 46°08' W 001°35'5 9.2
2018-Jun-09 06:00N 46°08' W 001°29'5 9.5
2018-Jun-09 05:30N 46°07' W 001°22'4 8.7
2018-Jun-09 05:00N 46°06' W 001°16'4 7.1
2018-Jun-09 04:30N 46°10' W 001°14'0 0.0
2018-Jun-09 04:00N 46°10' W 001°13'0 0.0
2018-Jun-09 03:30N 46°10' W 001°14'0 0.0
2018-Jun-09 03:00N 46°10' W 001°13'3 6.0
2018-Jun-09 02:30N 46°07' W 001°16'5 9.5
2018-Jun-09 02:00N 46°06' W 001°22'3 7.0
2018-Jun-09 01:30N 46°06' W 001°27'3 6.6
2018-Jun-09 01:00N 46°06' W 001°32'2 3.6
2018-Jun-09 00:30N 46°05' W 001°35'0 0.6
2018-Jun-09 00:00N 46°05' W 001°34'0 0.6
2018-Jun-08 23:30N 46°05' W 001°34'1 1.2
2018-Jun-08 23:00N 46°05' W 001°35'3 6.8
2018-Jun-08 22:30N 46°08' W 001°38'611.5
2018-Jun-08 22:00N 46°13' W 001°42'4 8.7
2018-Jun-08 21:30N 46°16' W 001°46'5 9.3
2018-Jun-08 21:00N 46°20' W 001°49'5 9.4
2018-Jun-08 20:30N 46°24' W 001°53'5 9.4
2018-Jun-08 20:00N 46°28' W 001°57'5 9.4
2018-Jun-08 19:30N 46°32' W 002°01'5 9.4
2018-Jun-08 19:00N 46°35' W 002°05'5 9.4
2018-Jun-08 18:30N 46°39' W 002°09'5 9.3
2018-Jun-08 18:00N 46°43' W 002°13'5 9.0
2018-Jun-08 17:30N 46°46' W 002°17'5 9.0
2018-Jun-08 17:00N 46°50' W 002°22'5 9.3
2018-Jun-08 16:30N 46°53' W 002°26'4 8.3
2018-Jun-08 16:00N 46°57' W 002°28'5 9.6
2018-Jun-08 15:30N 47°02' W 002°26'612.0
2018-Jun-08 15:00N 47°07' W 002°23'611.9
2018-Jun-08 14:30N 47°12' W 002°17'713.5
2018-Jun-08 14:00N 47°17' W 002°10'3 5.3
2018-Jun-08 13:30N 47°18' W 002°07'0 0.0
2018-Jun-08 13:00N 47°18' W 002°07'0 0.0
2018-Jun-08 12:30N 47°18' W 002°07'0 0.0
2018-Jun-08 12:00N 47°18' W 002°07'1 1.8
2018-Jun-08 11:30N 47°18' W 002°08'5 9.7
2018-Jun-08 11:00N 47°15' W 002°14'5 9.9
2018-Jun-08 10:31N 47°11' W 002°18'5 9.0
2018-Jun-08 10:00N 47°07' W 002°22'4 9.0
2018-Jun-08 09:30N 47°04' W 002°26'510.8
2018-Jun-08 09:00N 47°01' W 002°33'2 3.3
2018-Jun-08 08:30N 46°60' W 002°35'1 1.3
2018-Jun-08 08:00N 47°00' W 002°34'0 1.0
2018-Jun-08 07:31N 47°00' W 002°33'1 1.3
2018-Jun-08 07:01N 47°00' W 002°34'1 1.3
2018-Jun-08 06:30N 46°60' W 002°35'1 1.6
2018-Jun-08 06:00N 46°59' W 002°36'  

Dump ship's entire track history